Terminal Aerodrome Forecast
Issued by NWS

Home | Current Version | Previous Version | Text Only | Print | Product List | Glossary On
Versions: 1 2 3 4 5 6 7 8 9 10 11 12 13 14 15 16
713
FTUS46 KHNX 212342
TAFMCE
TAF
KMCE 212342Z 2200/2224 13012KT P6SM SCT060 BKN100
     FM220300 14012G25KT P6SM OVC050
      TEMPO 2204/2208 -RA SCT025 BKN040
     FM220800 13025G35KT P6SM -RA SCT025 OVC040
     FM222100 14015G28KT P6SM -RA SCT020 BKN040=

USA.gov is the U.S. government's official web portal to all federal, state and local government web resources and services.